Accueil
METAR-TAF:

METAR-TAF

Aéroports :

Aéroport de Metz-Nancy-Lorraine

Metz-Nancy-Lorraine, France

latitude: 48-59N, longitude: 006-15E, altitude: 264 m

Observation

Le bulletin a été fait il y a 26 minutes, à 12:00 UTC
Vent 3 kt de sud/sud-est, variant entre est/sud-est et sud
Température 1°C
Humidité 80%
Pression 1020 hPa
Visibilité 10 km ou plus
Quelques nuages à une hauteur de 1000 ft
Nuages épars à une hauteur de 24000 ft

METAR: LFJL 181200Z AUTO 15003KT 110V180 9999 FEW010 SCT240 01/M02 Q1020 NOSIG

Heure: 13:26 (12:26 UTC)

Prévision

Le bulletin a été fait il y a 1 heure et 26 minutes, à 11:00 UTC
Prévision valable du 18 à 12 UTC au 19 à 12 UTC
Vent 3 kt de direction variable
Visibilité 10 km ou plus
Quelques nuages à une hauteur de 1000 ft
Nuages épars à une hauteur de 3000 ft
Evoluant progressivement
du 18 à 12 UTC au 18 à 15 UTC
Vent 10 kt de est

TAF: LFJL 181100Z 1812/1912 VRB03KT 9999 FEW010 SCT030 BECMG 1812/1815 09010KT

Observations et prévisions météorologiques de plus de 4000 aéroports (messages METAR et TAF).

Les stations disponibles sont représentées par des disques jaunes et rouges sur la carte.

Passer la souris dessus pour voir le nom de la station.

Cliquer dessus pour voir les observations et prévisions météorologiques.

Pour changer de carte: cliquez sur les boutons verts avec une croix noire pour zoomer, sur le bouton vert avec un tiret pour effectuer un zoom arrière, ou sur les flèches vertes pour les cartes adjacentes.


METAR-TAF: